sensor_id;sensor_type;location;lat;lon;timestamp;P1;durP1;ratioP1;P2;durP2;ratioP2
65706;SDS011;52423;43.512;5.220;2023-02-28T00:01:28;8.88;;;5.90;;
65706;SDS011;52423;43.512;5.220;2023-02-28T00:03:54;6.63;;;5.72;;
65706;SDS011;52423;43.512;5.220;2023-02-28T00:06:20;10.73;;;6.18;;
65706;SDS011;52423;43.512;5.220;2023-02-28T00:08:58;11.90;;;6.63;;
65706;SDS011;52423;43.512;5.220;2023-02-28T00:11:24;7.85;;;5.93;;
65706;SDS011;52423;43.512;5.220;2023-02-28T00:13:58;7.68;;;6.00;;
65706;SDS011;52423;43.512;5.220;2023-02-28T00:16:27;10.90;;;6.30;;
65706;SDS011;52423;43.512;5.220;2023-02-28T00:18:52;9.85;;;5.95;;
65706;SDS011;52423;43.512;5.220;2023-02-28T00:21:19;9.55;;;6.32;;
65706;SDS011;52423;43.512;5.220;2023-02-28T00:23:45;10.27;;;6.30;;
65706;SDS011;52423;43.512;5.220;2023-02-28T00:26:10;6.65;;;5.90;;
65706;SDS011;52423;43.512;5.220;2023-02-28T00:28:36;8.20;;;6.20;;
65706;SDS011;52423;43.512;5.220;2023-02-28T00:31:11;7.15;;;5.95;;
65706;SDS011;52423;43.512;5.220;2023-02-28T00:33:36;8.27;;;6.38;;
65706;SDS011;52423;43.512;5.220;2023-02-28T00:36:06;8.90;;;6.30;;
65706;SDS011;52423;43.512;5.220;2023-02-28T00:38:33;7.78;;;6.50;;
65706;SDS011;52423;43.512;5.220;2023-02-28T00:41:05;7.68;;;5.85;;
65706;SDS011;52423;43.512;5.220;2023-02-28T00:43:34;7.43;;;5.97;;
65706;SDS011;52423;43.512;5.220;2023-02-28T00:46:04;6.18;;;5.50;;
65706;SDS011;52423;43.512;5.220;2023-02-28T00:48:35;6.38;;;5.72;;
65706;SDS011;52423;43.512;5.220;2023-02-28T00:51:01;6.18;;;5.40;;
65706;SDS011;52423;43.512;5.220;2023-02-28T00:53:26;5.55;;;5.00;;
65706;SDS011;52423;43.512;5.220;2023-02-28T00:55:52;7.00;;;5.25;;
65706;SDS011;52423;43.512;5.220;2023-02-28T00:58:26;5.65;;;4.80;;
65706;SDS011;52423;43.512;5.220;2023-02-28T01:00:52;5.22;;;4.72;;
65706;SDS011;52423;43.512;5.220;2023-02-28T01:03:18;5.63;;;4.80;;
65706;SDS011;52423;43.512;5.220;2023-02-28T01:05:44;5.00;;;4.50;;
65706;SDS011;52423;43.512;5.220;2023-02-28T01:08:10;4.57;;;4.18;;
65706;SDS011;52423;43.512;5.220;2023-02-28T01:10:39;5.38;;;4.88;;
65706;SDS011;52423;43.512;5.220;2023-02-28T01:13:10;6.57;;;4.85;;
65706;SDS011;52423;43.512;5.220;2023-02-28T01:15:36;5.53;;;5.03;;
65706;SDS011;52423;43.512;5.220;2023-02-28T01:18:02;6.43;;;5.00;;
65706;SDS011;52423;43.512;5.220;2023-02-28T01:20:28;5.13;;;4.70;;
65706;SDS011;52423;43.512;5.220;2023-02-28T01:23:02;5.00;;;4.57;;
65706;SDS011;52423;43.512;5.220;2023-02-28T01:25:28;5.00;;;4.38;;
65706;SDS011;52423;43.512;5.220;2023-02-28T01:27:59;5.10;;;4.60;;
65706;SDS011;52423;43.512;5.220;2023-02-28T01:30:24;5.35;;;4.57;;
65706;SDS011;52423;43.512;5.220;2023-02-28T01:32:50;5.60;;;4.80;;
65706;SDS011;52423;43.512;5.220;2023-02-28T01:35:18;6.63;;;4.32;;
65706;SDS011;52423;43.512;5.220;2023-02-28T01:37:43;5.25;;;4.38;;
65706;SDS011;52423;43.512;5.220;2023-02-28T01:40:09;5.38;;;4.30;;
65706;SDS011;52423;43.512;5.220;2023-02-28T01:42:35;6.63;;;4.70;;
65706;SDS011;52423;43.512;5.220;2023-02-28T01:45:03;6.32;;;4.72;;
65706;SDS011;52423;43.512;5.220;2023-02-28T01:47:36;5.63;;;4.40;;
65706;SDS011;52423;43.512;5.220;2023-02-28T01:50:09;6.80;;;4.25;;
65706;SDS011;52423;43.512;5.220;2023-02-28T01:52:39;5.35;;;3.92;;
65706;SDS011;52423;43.512;5.220;2023-02-28T01:55:05;4.78;;;4.38;;
65706;SDS011;52423;43.512;5.220;2023-02-28T01:57:34;4.15;;;3.85;;
65706;SDS011;52423;43.512;5.220;2023-02-28T02:00:12;8.27;;;4.45;;
65706;SDS011;52423;43.512;5.220;2023-02-28T02:02:42;4.50;;;4.10;;
65706;SDS011;52423;43.512;5.220;2023-02-28T02:05:29;5.25;;;4.32;;
65706;SDS011;52423;43.512;5.220;2023-02-28T02:08:06;8.88;;;4.70;;
65706;SDS011;52423;43.512;5.220;2023-02-28T02:10:50;4.60;;;4.18;;
65706;SDS011;52423;43.512;5.220;2023-02-28T02:19:33;4.90;;;4.47;;
65706;SDS011;52423;43.512;5.220;2023-02-28T02:27:46;5.15;;;4.65;;
65706;SDS011;52423;43.512;5.220;2023-02-28T02:35:54;6.47;;;5.00;;
65706;SDS011;52423;43.512;5.220;2023-02-28T02:41:14;6.60;;;5.32;;
65706;SDS011;52423;43.512;5.220;2023-02-28T02:43:44;10.23;;;5.00;;
65706;SDS011;52423;43.512;5.220;2023-02-28T02:49:00;9.05;;;4.97;;
65706;SDS011;52423;43.512;5.220;2023-02-28T02:51:30;5.85;;;5.25;;
65706;SDS011;52423;43.512;5.220;2023-02-28T02:54:20;7.07;;;5.13;;
65706;SDS011;52423;43.512;5.220;2023-02-28T02:56:52;7.85;;;6.03;;
65706;SDS011;52423;43.512;5.220;2023-02-28T02:59:20;7.40;;;5.72;;
65706;SDS011;52423;43.512;5.220;2023-02-28T03:01:53;6.63;;;5.65;;
65706;SDS011;52423;43.512;5.220;2023-02-28T03:04:26;7.63;;;5.28;;
65706;SDS011;52423;43.512;5.220;2023-02-28T03:06:57;7.90;;;5.15;;
65706;SDS011;52423;43.512;5.220;2023-02-28T03:09:32;7.90;;;5.40;;
65706;SDS011;52423;43.512;5.220;2023-02-28T03:11:58;7.20;;;5.32;;
65706;SDS011;52423;43.512;5.220;2023-02-28T03:17:26;5.70;;;5.00;;
65706;SDS011;52423;43.512;5.220;2023-02-28T03:22:45;6.78;;;5.72;;
65706;SDS011;52423;43.512;5.220;2023-02-28T03:25:25;6.63;;;5.93;;
65706;SDS011;52423;43.512;5.220;2023-02-28T03:36:00;9.43;;;5.40;;
65706;SDS011;52423;43.512;5.220;2023-02-28T03:38:46;8.10;;;5.47;;
65706;SDS011;52423;43.512;5.220;2023-02-28T03:44:01;5.90;;;5.15;;
65706;SDS011;52423;43.512;5.220;2023-02-28T03:46:35;4.82;;;4.45;;
65706;SDS011;52423;43.512;5.220;2023-02-28T03:49:05;7.40;;;5.03;;
65706;SDS011;52423;43.512;5.220;2023-02-28T03:51:50;11.73;;;5.88;;
65706;SDS011;52423;43.512;5.220;2023-02-28T03:54:24;6.15;;;5.35;;
65706;SDS011;52423;43.512;5.220;2023-02-28T03:57:02;9.15;;;6.82;;
65706;SDS011;52423;43.512;5.220;2023-02-28T04:02:18;7.15;;;6.20;;
65706;SDS011;52423;43.512;5.220;2023-02-28T04:04:44;7.25;;;6.22;;
65706;SDS011;52423;43.512;5.220;2023-02-28T04:07:14;7.70;;;6.63;;
65706;SDS011;52423;43.512;5.220;2023-02-28T04:09:43;7.78;;;6.63;;
65706;SDS011;52423;43.512;5.220;2023-02-28T04:12:09;8.15;;;6.43;;
65706;SDS011;52423;43.512;5.220;2023-02-28T04:14:34;8.13;;;6.97;;
65706;SDS011;52423;43.512;5.220;2023-02-28T04:17:00;8.15;;;6.50;;
65706;SDS011;52423;43.512;5.220;2023-02-28T04:19:25;9.27;;;6.00;;
65706;SDS011;52423;43.512;5.220;2023-02-28T04:21:52;6.70;;;6.10;;
65706;SDS011;52423;43.512;5.220;2023-02-28T04:24:23;8.15;;;6.20;;
65706;SDS011;52423;43.512;5.220;2023-02-28T04:26:51;8.38;;;6.38;;
65706;SDS011;52423;43.512;5.220;2023-02-28T04:29:19;13.43;;;6.75;;
65706;SDS011;52423;43.512;5.220;2023-02-28T04:31:46;8.90;;;6.68;;
65706;SDS011;52423;43.512;5.220;2023-02-28T04:34:12;8.02;;;6.55;;
65706;SDS011;52423;43.512;5.220;2023-02-28T04:36:37;15.93;;;6.57;;
65706;SDS011;52423;43.512;5.220;2023-02-28T04:39:03;8.02;;;6.68;;
65706;SDS011;52423;43.512;5.220;2023-02-28T04:41:35;7.57;;;6.47;;
65706;SDS011;52423;43.512;5.220;2023-02-28T04:44:00;7.83;;;6.97;;
65706;SDS011;52423;43.512;5.220;2023-02-28T04:46:26;8.13;;;6.72;;
65706;SDS011;52423;43.512;5.220;2023-02-28T04:48:52;7.97;;;7.18;;
65706;SDS011;52423;43.512;5.220;2023-02-28T04:51:26;7.68;;;6.97;;
65706;SDS011;52423;43.512;5.220;2023-02-28T04:53:54;8.63;;;7.25;;
65706;SDS011;52423;43.512;5.220;2023-02-28T04:56:20;7.28;;;6.57;;
65706;SDS011;52423;43.512;5.220;2023-02-28T04:58:46;8.25;;;7.10;;
65706;SDS011;52423;43.512;5.220;2023-02-28T05:03:55;9.32;;;6.75;;
65706;SDS011;52423;43.512;5.220;2023-02-28T05:06:22;8.20;;;6.63;;
65706;SDS011;52423;43.512;5.220;2023-02-28T05:08:50;6.95;;;6.22;;
65706;SDS011;52423;43.512;5.220;2023-02-28T05:11:26;7.53;;;6.80;;
65706;SDS011;52423;43.512;5.220;2023-02-28T05:13:54;8.32;;;6.88;;
65706;SDS011;52423;43.512;5.220;2023-02-28T05:16:23;8.40;;;7.03;;
65706;SDS011;52423;43.512;5.220;2023-02-28T05:18:48;7.82;;;7.13;;
65706;SDS011;52423;43.512;5.220;2023-02-28T05:21:22;11.23;;;7.40;;
65706;SDS011;52423;43.512;5.220;2023-02-28T05:23:51;9.30;;;8.40;;
65706;SDS011;52423;43.512;5.220;2023-02-28T05:26:17;11.05;;;8.35;;
65706;SDS011;52423;43.512;5.220;2023-02-28T05:28:42;9.05;;;7.72;;
65706;SDS011;52423;43.512;5.220;2023-02-28T05:31:10;7.88;;;7.07;;
65706;SDS011;52423;43.512;5.220;2023-02-28T05:33:36;8.07;;;7.25;;
65706;SDS011;52423;43.512;5.220;2023-02-28T05:36:01;8.43;;;7.28;;
65706;SDS011;52423;43.512;5.220;2023-02-28T05:38:36;8.55;;;7.13;;
65706;SDS011;52423;43.512;5.220;2023-02-28T05:41:05;8.80;;;7.43;;
65706;SDS011;52423;43.512;5.220;2023-02-28T05:43:32;9.35;;;7.68;;
65706;SDS011;52423;43.512;5.220;2023-02-28T05:45:57;7.90;;;7.00;;
65706;SDS011;52423;43.512;5.220;2023-02-28T05:48:23;7.70;;;6.85;;
65706;SDS011;52423;43.512;5.220;2023-02-28T05:50:48;7.82;;;7.03;;
65706;SDS011;52423;43.512;5.220;2023-02-28T05:53:17;9.02;;;6.70;;
65706;SDS011;52423;43.512;5.220;2023-02-28T05:55:42;7.68;;;6.97;;
65706;SDS011;52423;43.512;5.220;2023-02-28T05:58:07;8.20;;;7.35;;
65706;SDS011;52423;43.512;5.220;2023-02-28T06:00:33;7.60;;;6.90;;
65706;SDS011;52423;43.512;5.220;2023-02-28T06:02:58;7.88;;;7.07;;
65706;SDS011;52423;43.512;5.220;2023-02-28T06:05:26;7.45;;;6.75;;
65706;SDS011;52423;43.512;5.220;2023-02-28T06:07:52;10.02;;;6.75;;
65706;SDS011;52423;43.512;5.220;2023-02-28T06:10:18;14.05;;;7.70;;
65706;SDS011;52423;43.512;5.220;2023-02-28T06:12:44;9.00;;;8.10;;
65706;SDS011;52423;43.512;5.220;2023-02-28T06:15:14;8.75;;;7.78;;
65706;SDS011;52423;43.512;5.220;2023-02-28T06:17:41;12.30;;;8.15;;
65706;SDS011;52423;43.512;5.220;2023-02-28T06:20:15;9.18;;;7.95;;
65706;SDS011;52423;43.512;5.220;2023-02-28T06:22:41;11.00;;;8.88;;
65706;SDS011;52423;43.512;5.220;2023-02-28T06:25:06;10.52;;;7.95;;
65706;SDS011;52423;43.512;5.220;2023-02-28T06:27:32;9.35;;;7.68;;
65706;SDS011;52423;43.512;5.220;2023-02-28T06:29:58;12.35;;;8.35;;
65706;SDS011;52423;43.512;5.220;2023-02-28T06:32:36;8.95;;;8.05;;
65706;SDS011;52423;43.512;5.220;2023-02-28T06:35:02;8.95;;;8.05;;
65706;SDS011;52423;43.512;5.220;2023-02-28T06:37:28;15.48;;;8.98;;
65706;SDS011;52423;43.512;5.220;2023-02-28T06:39:55;9.20;;;8.32;;
65706;SDS011;52423;43.512;5.220;2023-02-28T06:42:26;10.43;;;8.55;;
65706;SDS011;52423;43.512;5.220;2023-02-28T06:44:56;11.10;;;8.45;;
65706;SDS011;52423;43.512;5.220;2023-02-28T06:47:22;9.38;;;8.43;;
65706;SDS011;52423;43.512;5.220;2023-02-28T06:49:47;10.80;;;9.32;;
65706;SDS011;52423;43.512;5.220;2023-02-28T06:52:13;12.25;;;9.32;;
65706;SDS011;52423;43.512;5.220;2023-02-28T06:54:42;12.00;;;9.60;;
65706;SDS011;52423;43.512;5.220;2023-02-28T06:57:07;10.07;;;8.73;;
65706;SDS011;52423;43.512;5.220;2023-02-28T06:59:33;9.27;;;8.27;;
65706;SDS011;52423;43.512;5.220;2023-02-28T07:02:00;34.92;;;16.95;;
65706;SDS011;52423;43.512;5.220;2023-02-28T07:04:27;46.28;;;23.58;;
65706;SDS011;52423;43.512;5.220;2023-02-28T07:06:52;42.03;;;21.95;;
65706;SDS011;52423;43.512;5.220;2023-02-28T07:09:26;43.00;;;23.98;;
65706;SDS011;52423;43.512;5.220;2023-02-28T07:11:54;40.20;;;20.45;;
65706;SDS011;52423;43.512;5.220;2023-02-28T07:14:20;68.13;;;22.77;;
65706;SDS011;52423;43.512;5.220;2023-02-28T07:16:48;84.80;;;29.02;;
65706;SDS011;52423;43.512;5.220;2023-02-28T07:19:21;87.35;;;34.42;;
65706;SDS011;52423;43.512;5.220;2023-02-28T07:21:46;38.47;;;18.27;;
65706;SDS011;52423;43.512;5.220;2023-02-28T07:24:12;19.20;;;12.48;;
65706;SDS011;52423;43.512;5.220;2023-02-28T07:26:40;17.40;;;11.68;;
65706;SDS011;52423;43.512;5.220;2023-02-28T07:29:06;17.88;;;10.40;;
65706;SDS011;52423;43.512;5.220;2023-02-28T07:31:31;13.38;;;10.25;;
65706;SDS011;52423;43.512;5.220;2023-02-28T07:34:02;12.20;;;9.13;;
65706;SDS011;52423;43.512;5.220;2023-02-28T07:36:28;11.38;;;9.38;;
65706;SDS011;52423;43.512;5.220;2023-02-28T07:38:53;12.02;;;9.57;;
65706;SDS011;52423;43.512;5.220;2023-02-28T07:41:22;11.00;;;9.05;;
65706;SDS011;52423;43.512;5.220;2023-02-28T07:43:49;11.95;;;9.52;;
65706;SDS011;52423;43.512;5.220;2023-02-28T07:46:15;10.15;;;9.02;;
65706;SDS011;52423;43.512;5.220;2023-02-28T07:48:41;17.08;;;10.40;;
65706;SDS011;52423;43.512;5.220;2023-02-28T07:51:08;18.17;;;12.75;;
65706;SDS011;52423;43.512;5.220;2023-02-28T07:53:33;19.65;;;13.45;;
65706;SDS011;52423;43.512;5.220;2023-02-28T07:56:08;25.15;;;14.82;;
65706;SDS011;52423;43.512;5.220;2023-02-28T07:58:35;20.42;;;12.90;;
65706;SDS011;52423;43.512;5.220;2023-02-28T08:01:07;15.30;;;12.63;;
65706;SDS011;52423;43.512;5.220;2023-02-28T08:03:43;13.13;;;10.10;;
65706;SDS011;52423;43.512;5.220;2023-02-28T08:06:16;11.43;;;9.07;;
65706;SDS011;52423;43.512;5.220;2023-02-28T08:08:51;13.55;;;10.57;;
65706;SDS011;52423;43.512;5.220;2023-02-28T08:11:18;8.50;;;7.50;;
65706;SDS011;52423;43.512;5.220;2023-02-28T08:13:43;9.95;;;8.63;;
65706;SDS011;52423;43.512;5.220;2023-02-28T08:16:10;9.80;;;7.75;;
65706;SDS011;52423;43.512;5.220;2023-02-28T08:18:39;12.90;;;7.88;;
65706;SDS011;52423;43.512;5.220;2023-02-28T08:21:08;8.98;;;8.00;;
65706;SDS011;52423;43.512;5.220;2023-02-28T08:23:35;11.05;;;9.40;;
65706;SDS011;52423;43.512;5.220;2023-02-28T08:26:00;24.25;;;15.18;;
65706;SDS011;52423;43.512;5.220;2023-02-28T08:28:26;25.10;;;16.55;;
65706;SDS011;52423;43.512;5.220;2023-02-28T08:30:51;13.25;;;11.85;;
65706;SDS011;52423;43.512;5.220;2023-02-28T08:33:16;12.23;;;9.68;;
65706;SDS011;52423;43.512;5.220;2023-02-28T08:35:42;12.07;;;10.85;;
65706;SDS011;52423;43.512;5.220;2023-02-28T08:38:07;9.95;;;8.48;;
65706;SDS011;52423;43.512;5.220;2023-02-28T08:40:42;15.52;;;11.25;;
65706;SDS011;52423;43.512;5.220;2023-02-28T08:43:10;13.70;;;10.60;;
65706;SDS011;52423;43.512;5.220;2023-02-28T08:45:36;23.92;;;10.57;;
65706;SDS011;52423;43.512;5.220;2023-02-28T08:48:01;11.85;;;10.60;;
65706;SDS011;52423;43.512;5.220;2023-02-28T08:50:27;14.63;;;10.00;;
65706;SDS011;52423;43.512;5.220;2023-02-28T08:52:52;13.65;;;10.45;;
65706;SDS011;52423;43.512;5.220;2023-02-28T08:55:17;12.40;;;10.65;;
65706;SDS011;52423;43.512;5.220;2023-02-28T08:57:43;9.38;;;8.48;;
65706;SDS011;52423;43.512;5.220;2023-02-28T09:00:08;12.65;;;10.05;;
65706;SDS011;52423;43.512;5.220;2023-02-28T09:02:41;14.82;;;10.32;;
65706;SDS011;52423;43.512;5.220;2023-02-28T09:05:08;10.20;;;9.13;;
65706;SDS011;52423;43.512;5.220;2023-02-28T09:07:33;11.88;;;9.27;;
65706;SDS011;52423;43.512;5.220;2023-02-28T09:09:59;13.13;;;10.00;;
65706;SDS011;52423;43.512;5.220;2023-02-28T09:12:32;13.23;;;10.50;;
65706;SDS011;52423;43.512;5.220;2023-02-28T09:15:00;12.45;;;10.27;;
65706;SDS011;52423;43.512;5.220;2023-02-28T09:17:25;14.50;;;10.32;;
65706;SDS011;52423;43.512;5.220;2023-02-28T09:19:50;19.52;;;10.80;;
65706;SDS011;52423;43.512;5.220;2023-02-28T09:22:16;12.88;;;11.23;;
65706;SDS011;52423;43.512;5.220;2023-02-28T09:24:41;12.40;;;9.95;;
65706;SDS011;52423;43.512;5.220;2023-02-28T09:27:10;13.15;;;10.68;;
65706;SDS011;52423;43.512;5.220;2023-02-28T09:29:35;12.05;;;10.63;;
65706;SDS011;52423;43.512;5.220;2023-02-28T09:32:01;12.90;;;9.80;;
65706;SDS011;52423;43.512;5.220;2023-02-28T09:34:27;12.90;;;8.68;;
65706;SDS011;52423;43.512;5.220;2023-02-28T09:36:55;12.63;;;9.85;;
65706;SDS011;52423;43.512;5.220;2023-02-28T09:39:30;14.52;;;10.73;;
65706;SDS011;52423;43.512;5.220;2023-02-28T09:41:57;10.98;;;9.85;;
65706;SDS011;52423;43.512;5.220;2023-02-28T09:44:27;19.05;;;11.05;;
65706;SDS011;52423;43.512;5.220;2023-02-28T09:46:57;9.88;;;8.80;;
65706;SDS011;52423;43.512;5.220;2023-02-28T09:49:33;12.48;;;9.57;;
65706;SDS011;52423;43.512;5.220;2023-02-28T09:52:18;10.00;;;8.57;;
65706;SDS011;52423;43.512;5.220;2023-02-28T09:54:53;9.23;;;8.32;;
65706;SDS011;52423;43.512;5.220;2023-02-28T09:57:33;21.83;;;13.30;;
65706;SDS011;52423;43.512;5.220;2023-02-28T10:02:42;19.92;;;12.43;;
65706;SDS011;52423;43.512;5.220;2023-02-28T10:05:13;10.43;;;8.48;;
65706;SDS011;52423;43.512;5.220;2023-02-28T10:16:11;9.82;;;7.53;;
65706;SDS011;52423;43.512;5.220;2023-02-28T10:18:43;9.55;;;7.22;;
65706;SDS011;52423;43.512;5.220;2023-02-28T10:21:17;11.75;;;7.55;;
65706;SDS011;52423;43.512;5.220;2023-02-28T10:23:46;9.38;;;7.65;;
65706;SDS011;52423;43.512;5.220;2023-02-28T10:26:14;9.88;;;8.13;;
65706;SDS011;52423;43.512;5.220;2023-02-28T10:28:42;10.68;;;8.25;;
65706;SDS011;52423;43.512;5.220;2023-02-28T10:31:14;9.27;;;7.53;;
65706;SDS011;52423;43.512;5.220;2023-02-28T10:33:44;8.80;;;8.00;;
65706;SDS011;52423;43.512;5.220;2023-02-28T10:36:17;10.68;;;7.72;;
65706;SDS011;52423;43.512;5.220;2023-02-28T10:38:50;10.27;;;7.82;;
65706;SDS011;52423;43.512;5.220;2023-02-28T10:41:29;9.25;;;8.05;;
65706;SDS011;52423;43.512;5.220;2023-02-28T10:46:40;9.15;;;8.25;;
65706;SDS011;52423;43.512;5.220;2023-02-28T10:49:20;10.07;;;7.95;;
65706;SDS011;52423;43.512;5.220;2023-02-28T10:51:55;7.95;;;7.22;;
65706;SDS011;52423;43.512;5.220;2023-02-28T10:59:41;10.23;;;7.68;;
65706;SDS011;52423;43.512;5.220;2023-02-28T11:04:54;9.80;;;8.15;;
65706;SDS011;52423;43.512;5.220;2023-02-28T11:07:22;14.60;;;9.70;;
65706;SDS011;52423;43.512;5.220;2023-02-28T11:09:50;10.18;;;7.63;;
65706;SDS011;52423;43.512;5.220;2023-02-28T11:12:31;12.07;;;8.43;;
65706;SDS011;52423;43.512;5.220;2023-02-28T11:17:52;12.68;;;9.70;;
65706;SDS011;52423;43.512;5.220;2023-02-28T11:20:23;11.40;;;8.63;;
65706;SDS011;52423;43.512;5.220;2023-02-28T11:22:51;11.40;;;9.07;;
65706;SDS011;52423;43.512;5.220;2023-02-28T11:25:24;11.90;;;8.55;;
65706;SDS011;52423;43.512;5.220;2023-02-28T11:27:59;12.88;;;9.30;;
65706;SDS011;52423;43.512;5.220;2023-02-28T11:32:52;10.68;;;9.27;;
65706;SDS011;52423;43.512;5.220;2023-02-28T11:35:21;12.35;;;9.15;;
65706;SDS011;52423;43.512;5.220;2023-02-28T11:37:51;13.63;;;8.73;;
65706;SDS011;52423;43.512;5.220;2023-02-28T11:41:03;13.68;;;8.60;;
65706;SDS011;52423;43.512;5.220;2023-02-28T11:48:27;12.20;;;9.45;;
65706;SDS011;52423;43.512;5.220;2023-02-28T11:51:08;13.82;;;7.80;;
65706;SDS011;52423;43.512;5.220;2023-02-28T12:18:58;8.82;;;8.02;;
65706;SDS011;52423;43.512;5.220;2023-02-28T12:23:41;9.90;;;8.07;;
65706;SDS011;52423;43.512;5.220;2023-02-28T12:31:59;13.20;;;9.55;;
65706;SDS011;52423;43.512;5.220;2023-02-28T12:34:34;13.18;;;8.63;;
65706;SDS011;52423;43.512;5.220;2023-02-28T12:37:08;13.55;;;9.07;;
65706;SDS011;52423;43.512;5.220;2023-02-28T12:39:41;11.68;;;9.55;;
65706;SDS011;52423;43.512;5.220;2023-02-28T12:42:12;11.15;;;8.73;;
65706;SDS011;52423;43.512;5.220;2023-02-28T12:47:49;10.32;;;8.48;;
65706;SDS011;52423;43.512;5.220;2023-02-28T12:50:19;12.60;;;9.25;;
65706;SDS011;52423;43.512;5.220;2023-02-28T12:55:29;13.02;;;9.90;;
65706;SDS011;52423;43.512;5.220;2023-02-28T13:06:27;10.63;;;8.27;;
65706;SDS011;52423;43.512;5.220;2023-02-28T13:09:12;11.57;;;8.55;;
65706;SDS011;52423;43.512;5.220;2023-02-28T13:11:44;9.52;;;7.72;;
65706;SDS011;52423;43.512;5.220;2023-02-28T13:19:28;17.02;;;6.70;;
65706;SDS011;52423;43.512;5.220;2023-02-28T13:22:03;7.88;;;6.60;;
65706;SDS011;52423;43.512;5.220;2023-02-28T13:29:36;9.70;;;7.53;;
65706;SDS011;52423;43.512;5.220;2023-02-28T13:34:35;7.82;;;7.03;;
65706;SDS011;52423;43.512;5.220;2023-02-28T13:39:51;12.10;;;7.50;;
65706;SDS011;52423;43.512;5.220;2023-02-28T13:52:55;8.00;;;7.15;;
65706;SDS011;52423;43.512;5.220;2023-02-28T13:55:48;7.90;;;7.20;;
65706;SDS011;52423;43.512;5.220;2023-02-28T14:13:56;7.63;;;6.93;;
65706;SDS011;52423;43.512;5.220;2023-02-28T14:19:24;8.25;;;6.95;;
65706;SDS011;52423;43.512;5.220;2023-02-28T14:24:42;14.57;;;7.57;;
65706;SDS011;52423;43.512;5.220;2023-02-28T14:33:20;7.50;;;6.60;;
65706;SDS011;52423;43.512;5.220;2023-02-28T14:38:48;9.05;;;7.25;;
65706;SDS011;52423;43.512;5.220;2023-02-28T14:43:59;11.30;;;6.97;;
65706;SDS011;52423;43.512;5.220;2023-02-28T14:46:36;8.27;;;7.15;;
65706;SDS011;52423;43.512;5.220;2023-02-28T14:49:04;8.75;;;6.90;;
65706;SDS011;52423;43.512;5.220;2023-02-28T14:51:32;10.48;;;7.03;;
65706;SDS011;52423;43.512;5.220;2023-02-28T14:53:59;8.70;;;6.75;;
65706;SDS011;52423;43.512;5.220;2023-02-28T14:56:34;9.60;;;7.25;;
65706;SDS011;52423;43.512;5.220;2023-02-28T14:59:17;13.45;;;8.10;;
65706;SDS011;52423;43.512;5.220;2023-02-28T15:04:52;13.25;;;9.43;;
65706;SDS011;52423;43.512;5.220;2023-02-28T15:07:21;10.88;;;8.60;;
65706;SDS011;52423;43.512;5.220;2023-02-28T15:12:45;10.70;;;7.57;;
65706;SDS011;52423;43.512;5.220;2023-02-28T15:15:26;7.50;;;6.43;;
65706;SDS011;52423;43.512;5.220;2023-02-28T15:18:07;8.88;;;7.47;;
65706;SDS011;52423;43.512;5.220;2023-02-28T15:20:44;10.13;;;6.68;;
65706;SDS011;52423;43.512;5.220;2023-02-28T15:23:10;8.95;;;8.05;;
65706;SDS011;52423;43.512;5.220;2023-02-28T15:25:40;8.43;;;7.25;;
65706;SDS011;52423;43.512;5.220;2023-02-28T15:28:09;8.00;;;7.18;;
65706;SDS011;52423;43.512;5.220;2023-02-28T15:33:52;10.25;;;9.13;;
65706;SDS011;52423;43.512;5.220;2023-02-28T15:36:19;13.18;;;8.52;;
65706;SDS011;52423;43.512;5.220;2023-02-28T15:38:58;8.35;;;6.90;;
65706;SDS011;52423;43.512;5.220;2023-02-28T15:41:35;8.13;;;7.32;;
65706;SDS011;52423;43.512;5.220;2023-02-28T15:49:23;16.13;;;7.53;;
65706;SDS011;52423;43.512;5.220;2023-02-28T15:51:52;10.05;;;8.02;;
65706;SDS011;52423;43.512;5.220;2023-02-28T15:54:24;9.30;;;7.28;;
65706;SDS011;52423;43.512;5.220;2023-02-28T15:56:55;10.18;;;8.30;;
65706;SDS011;52423;43.512;5.220;2023-02-28T15:59:28;8.77;;;7.85;;
65706;SDS011;52423;43.512;5.220;2023-02-28T16:07:38;12.90;;;6.95;;
65706;SDS011;52423;43.512;5.220;2023-02-28T16:10:05;8.77;;;7.57;;
65706;SDS011;52423;43.512;5.220;2023-02-28T16:12:33;9.00;;;8.10;;
65706;SDS011;52423;43.512;5.220;2023-02-28T16:15:02;13.95;;;9.38;;
65706;SDS011;52423;43.512;5.220;2023-02-28T16:19:59;11.25;;;8.60;;
65706;SDS011;52423;43.512;5.220;2023-02-28T16:22:25;13.55;;;8.10;;
65706;SDS011;52423;43.512;5.220;2023-02-28T16:24:51;9.40;;;7.85;;
65706;SDS011;52423;43.512;5.220;2023-02-28T16:27:28;8.43;;;7.50;;
65706;SDS011;52423;43.512;5.220;2023-02-28T16:29:57;11.85;;;7.60;;
65706;SDS011;52423;43.512;5.220;2023-02-28T16:32:23;10.27;;;8.82;;
65706;SDS011;52423;43.512;5.220;2023-02-28T16:34:51;11.63;;;7.90;;
65706;SDS011;52423;43.512;5.220;2023-02-28T16:37:17;9.35;;;7.38;;
65706;SDS011;52423;43.512;5.220;2023-02-28T16:39:43;12.57;;;7.28;;
65706;SDS011;52423;43.512;5.220;2023-02-28T16:42:22;10.57;;;7.47;;
65706;SDS011;52423;43.512;5.220;2023-02-28T16:44:50;9.85;;;8.20;;
65706;SDS011;52423;43.512;5.220;2023-02-28T16:47:16;10.32;;;7.93;;
65706;SDS011;52423;43.512;5.220;2023-02-28T16:49:42;9.38;;;7.78;;
65706;SDS011;52423;43.512;5.220;2023-02-28T16:52:17;11.55;;;7.97;;
65706;SDS011;52423;43.512;5.220;2023-02-28T16:54:45;8.90;;;7.72;;
65706;SDS011;52423;43.512;5.220;2023-02-28T16:57:18;15.20;;;9.52;;
65706;SDS011;52423;43.512;5.220;2023-02-28T16:59:50;15.38;;;8.27;;
65706;SDS011;52423;43.512;5.220;2023-02-28T17:02:19;8.55;;;7.18;;
65706;SDS011;52423;43.512;5.220;2023-02-28T17:04:45;17.60;;;8.57;;
65706;SDS011;52423;43.512;5.220;2023-02-28T17:07:11;11.07;;;8.52;;
65706;SDS011;52423;43.512;5.220;2023-02-28T17:09:44;13.30;;;10.00;;
65706;SDS011;52423;43.512;5.220;2023-02-28T17:12:10;12.93;;;9.55;;
65706;SDS011;52423;43.512;5.220;2023-02-28T17:14:36;11.98;;;9.05;;
65706;SDS011;52423;43.512;5.220;2023-02-28T17:17:02;13.52;;;9.38;;
65706;SDS011;52423;43.512;5.220;2023-02-28T17:19:29;13.15;;;9.63;;
65706;SDS011;52423;43.512;5.220;2023-02-28T17:21:58;20.30;;;11.40;;
65706;SDS011;52423;43.512;5.220;2023-02-28T17:24:23;23.58;;;12.88;;
65706;SDS011;52423;43.512;5.220;2023-02-28T17:26:48;26.52;;;14.45;;
65706;SDS011;52423;43.512;5.220;2023-02-28T17:29:15;17.80;;;11.90;;
65706;SDS011;52423;43.512;5.220;2023-02-28T17:31:41;16.25;;;11.88;;
65706;SDS011;52423;43.512;5.220;2023-02-28T17:34:13;17.92;;;11.55;;
65706;SDS011;52423;43.512;5.220;2023-02-28T17:36:43;16.83;;;10.48;;
65706;SDS011;52423;43.512;5.220;2023-02-28T17:39:11;15.10;;;10.82;;
65706;SDS011;52423;43.512;5.220;2023-02-28T17:41:49;16.98;;;11.25;;
65706;SDS011;52423;43.512;5.220;2023-02-28T17:44:18;18.33;;;12.55;;
65706;SDS011;52423;43.512;5.220;2023-02-28T17:46:44;14.65;;;10.35;;
65706;SDS011;52423;43.512;5.220;2023-02-28T17:49:10;14.27;;;11.23;;
65706;SDS011;52423;43.512;5.220;2023-02-28T17:51:41;14.05;;;10.55;;
65706;SDS011;52423;43.512;5.220;2023-02-28T17:54:07;17.65;;;12.60;;
65706;SDS011;52423;43.512;5.220;2023-02-28T17:56:32;13.27;;;10.27;;
65706;SDS011;52423;43.512;5.220;2023-02-28T17:59:00;17.02;;;10.70;;
65706;SDS011;52423;43.512;5.220;2023-02-28T18:01:29;15.50;;;10.02;;
65706;SDS011;52423;43.512;5.220;2023-02-28T18:03:54;17.67;;;10.50;;
65706;SDS011;52423;43.512;5.220;2023-02-28T18:06:21;18.65;;;12.98;;
65706;SDS011;52423;43.512;5.220;2023-02-28T18:09:04;22.77;;;13.40;;
65706;SDS011;52423;43.512;5.220;2023-02-28T18:11:29;29.38;;;17.73;;
65706;SDS011;52423;43.512;5.220;2023-02-28T18:14:09;26.35;;;13.55;;
65706;SDS011;52423;43.512;5.220;2023-02-28T18:16:34;15.73;;;10.50;;
65706;SDS011;52423;43.512;5.220;2023-02-28T18:19:00;11.95;;;10.70;;